sensor_id;sensor_type;location;lat;lon;timestamp;P1;P2;P0
35654;PMS1003;21773;50.010;19.972;2024-02-16T00:02:50;59.00;46.25;34.25
35654;PMS1003;21773;50.010;19.972;2024-02-16T00:05:54;59.00;46.00;34.00
35654;PMS1003;21773;50.010;19.972;2024-02-16T00:08:57;60.00;47.20;35.00
35654;PMS1003;21773;50.010;19.972;2024-02-16T00:12:01;57.60;46.40;35.00
35654;PMS1003;21773;50.010;19.972;2024-02-16T00:15:05;57.00;45.00;33.00
35654;PMS1003;21773;50.010;19.972;2024-02-16T00:18:10;53.00;44.00;32.00
35654;PMS1003;21773;50.010;19.972;2024-02-16T00:58:22;49.40;38.80;28.80
35654;PMS1003;21773;50.010;19.972;2024-02-16T01:01:25;47.00;38.00;27.80
35654;PMS1003;21773;50.010;19.972;2024-02-16T01:30:06;49.60;40.00;30.00
35654;PMS1003;21773;50.010;19.972;2024-02-16T01:33:10;52.40;41.00;30.00
35654;PMS1003;21773;50.010;19.972;2024-02-16T01:36:14;49.80;39.00;29.60
35654;PMS1003;21773;50.010;19.972;2024-02-16T01:39:18;47.00;38.60;29.00
35654;PMS1003;21773;50.010;19.972;2024-02-16T01:42:23;48.40;40.00;30.00
35654;PMS1003;21773;50.010;19.972;2024-02-16T01:45:27;45.00;38.00;28.00
35654;PMS1003;21773;50.010;19.972;2024-02-16T01:48:30;45.60;36.60;27.60
35654;PMS1003;21773;50.010;19.972;2024-02-16T01:51:34;52.00;42.00;31.00
35654;PMS1003;21773;50.010;19.972;2024-02-16T01:54:38;47.00;38.00;28.25
35654;PMS1003;21773;50.010;19.972;2024-02-16T01:57:44;48.00;39.00;29.00
35654;PMS1003;21773;50.010;19.972;2024-02-16T02:00:48;46.60;38.00;28.00
35654;PMS1003;21773;50.010;19.972;2024-02-16T02:03:53;45.40;36.40;27.40
35654;PMS1003;21773;50.010;19.972;2024-02-16T02:06:56;48.60;38.80;29.00
35654;PMS1003;21773;50.010;19.972;2024-02-16T02:09:59;47.00;37.60;28.00
35654;PMS1003;21773;50.010;19.972;2024-02-16T02:13:04;45.60;38.00;29.00
35654;PMS1003;21773;50.010;19.972;2024-02-16T02:16:07;50.00;39.80;29.00
35654;PMS1003;21773;50.010;19.972;2024-02-16T02:19:13;48.80;39.00;29.80
35654;PMS1003;21773;50.010;19.972;2024-02-16T02:22:17;48.00;40.00;28.60
35654;PMS1003;21773;50.010;19.972;2024-02-16T02:25:21;47.60;39.00;29.00
35654;PMS1003;21773;50.010;19.972;2024-02-16T02:28:27;49.60;41.00;30.00
35654;PMS1003;21773;50.010;19.972;2024-02-16T02:31:31;49.50;40.00;30.00
35654;PMS1003;21773;50.010;19.972;2024-02-16T02:34:34;56.00;44.00;32.00
35654;PMS1003;21773;50.010;19.972;2024-02-16T02:37:39;52.00;41.00;31.00
35654;PMS1003;21773;50.010;19.972;2024-02-16T02:40:42;54.20;44.20;32.20
35654;PMS1003;21773;50.010;19.972;2024-02-16T02:43:46;64.00;48.80;36.80
35654;PMS1003;21773;50.010;19.972;2024-02-16T02:46:49;57.60;46.20;34.00
35654;PMS1003;21773;50.010;19.972;2024-02-16T02:49:52;62.50;47.50;34.00
35654;PMS1003;21773;50.010;19.972;2024-02-16T02:52:57;62.60;48.00;35.60
35654;PMS1003;21773;50.010;19.972;2024-02-16T02:56:00;63.00;48.67;35.67
35654;PMS1003;21773;50.010;19.972;2024-02-16T02:59:03;62.80;47.80;34.80
35654;PMS1003;21773;50.010;19.972;2024-02-16T03:02:07;64.00;50.00;37.00
35654;PMS1003;21773;50.010;19.972;2024-02-16T03:05:10;58.00;47.50;36.00
35654;PMS1003;21773;50.010;19.972;2024-02-16T03:08:15;61.00;48.00;35.60
35654;PMS1003;21773;50.010;19.972;2024-02-16T03:11:18;62.40;48.00;36.00
35654;PMS1003;21773;50.010;19.972;2024-02-16T03:14:21;61.60;48.40;35.40
35654;PMS1003;21773;50.010;19.972;2024-02-16T03:17:25;62.00;48.00;35.00
35654;PMS1003;21773;50.010;19.972;2024-02-16T03:20:29;63.67;49.00;35.67
35654;PMS1003;21773;50.010;19.972;2024-02-16T03:23:33;66.80;51.00;39.80
35654;PMS1003;21773;50.010;19.972;2024-02-16T03:26:37;65.40;49.80;37.60
35654;PMS1003;21773;50.010;19.972;2024-02-16T03:29:40;64.40;51.00;39.00
35654;PMS1003;21773;50.010;19.972;2024-02-16T03:32:43;68.25;52.50;41.50
35654;PMS1003;21773;50.010;19.972;2024-02-16T03:35:50;71.25;53.00;41.00
35654;PMS1003;21773;50.010;19.972;2024-02-16T03:38:55;71.00;56.60;45.00
35654;PMS1003;21773;50.010;19.972;2024-02-16T03:41:58;67.80;53.00;43.00
35654;PMS1003;21773;50.010;19.972;2024-02-16T03:45:02;70.00;53.00;42.60
35654;PMS1003;21773;50.010;19.972;2024-02-16T03:48:06;68.00;53.00;43.00
35654;PMS1003;21773;50.010;19.972;2024-02-16T03:51:10;68.00;53.00;43.00
35654;PMS1003;21773;50.010;19.972;2024-02-16T03:54:14;66.00;52.00;41.60
35654;PMS1003;21773;50.010;19.972;2024-02-16T03:57:17;68.00;52.60;39.60
35654;PMS1003;21773;50.010;19.972;2024-02-16T04:00:21;69.40;52.40;40.40
35654;PMS1003;21773;50.010;19.972;2024-02-16T04:03:25;70.00;54.00;44.60
35654;PMS1003;21773;50.010;19.972;2024-02-16T04:06:28;66.00;51.00;39.00
35654;PMS1003;21773;50.010;19.972;2024-02-16T04:09:33;68.60;52.60;41.80
35654;PMS1003;21773;50.010;19.972;2024-02-16T04:12:36;63.00;50.40;38.20
35654;PMS1003;21773;50.010;19.972;2024-02-16T04:15:39;64.60;51.00;39.60
35654;PMS1003;21773;50.010;19.972;2024-02-16T04:18:43;69.40;51.00;38.60
35654;PMS1003;21773;50.010;19.972;2024-02-16T04:21:46;67.40;52.40;41.20
35654;PMS1003;21773;50.010;19.972;2024-02-16T04:24:50;65.80;51.00;40.80
35654;PMS1003;21773;50.010;19.972;2024-02-16T04:27:54;67.00;52.50;41.50
35654;PMS1003;21773;50.010;19.972;2024-02-16T04:30:57;67.40;52.00;41.00
35654;PMS1003;21773;50.010;19.972;2024-02-16T04:34:00;68.00;52.60;43.00
35654;PMS1003;21773;50.010;19.972;2024-02-16T04:37:04;67.00;53.00;43.00
35654;PMS1003;21773;50.010;19.972;2024-02-16T04:40:10;67.67;52.00;41.00
35654;PMS1003;21773;50.010;19.972;2024-02-16T04:43:14;67.00;52.25;43.00
35654;PMS1003;21773;50.010;19.972;2024-02-16T04:46:17;66.25;52.00;41.00
35654;PMS1003;21773;50.010;19.972;2024-02-16T04:49:21;65.40;51.00;39.00
35654;PMS1003;21773;50.010;19.972;2024-02-16T04:52:24;65.75;51.75;41.75
35654;PMS1003;21773;50.010;19.972;2024-02-16T04:55:32;66.60;51.00;40.60
35654;PMS1003;21773;50.010;19.972;2024-02-16T04:58:39;69.00;52.60;43.00
35654;PMS1003;21773;50.010;19.972;2024-02-16T05:01:43;66.00;50.20;39.00
35654;PMS1003;21773;50.010;19.972;2024-02-16T05:04:46;65.60;52.00;41.00
35654;PMS1003;21773;50.010;19.972;2024-02-16T05:07:50;66.75;52.00;42.00
35654;PMS1003;21773;50.010;19.972;2024-02-16T05:10:54;63.00;50.00;39.00
35654;PMS1003;21773;50.010;19.972;2024-02-16T05:13:58;65.40;50.00;37.60
35654;PMS1003;21773;50.010;19.972;2024-02-16T05:17:01;68.25;52.50;43.00
35654;PMS1003;21773;50.010;19.972;2024-02-16T05:20:08;62.60;49.60;37.00
35654;PMS1003;21773;50.010;19.972;2024-02-16T05:23:17;69.20;53.00;43.00
35654;PMS1003;21773;50.010;19.972;2024-02-16T05:26:21;69.80;54.00;43.00
35654;PMS1003;21773;50.010;19.972;2024-02-16T05:29:25;66.40;52.00;40.80
35654;PMS1003;21773;50.010;19.972;2024-02-16T05:32:28;69.20;52.60;42.40
35654;PMS1003;21773;50.010;19.972;2024-02-16T05:35:31;67.00;51.00;39.60
35654;PMS1003;21773;50.010;19.972;2024-02-16T05:38:35;71.80;55.80;43.00
35654;PMS1003;21773;50.010;19.972;2024-02-16T05:41:46;70.50;54.75;43.25
35654;PMS1003;21773;50.010;19.972;2024-02-16T05:44:49;72.20;57.00;46.60
35654;PMS1003;21773;50.010;19.972;2024-02-16T05:47:53;70.00;55.00;43.75
35654;PMS1003;21773;50.010;19.972;2024-02-16T05:50:57;67.60;53.00;44.40
35654;PMS1003;21773;50.010;19.972;2024-02-16T05:54:02;69.00;53.00;42.80
35654;PMS1003;21773;50.010;19.972;2024-02-16T05:57:07;70.00;53.00;44.00
35654;PMS1003;21773;50.010;19.972;2024-02-16T06:00:11;67.20;50.80;40.20
35654;PMS1003;21773;50.010;19.972;2024-02-16T06:03:15;67.00;51.75;40.50
35654;PMS1003;21773;50.010;19.972;2024-02-16T06:06:18;60.00;48.00;35.00
35654;PMS1003;21773;50.010;19.972;2024-02-16T06:09:22;61.40;49.00;36.40
35654;PMS1003;21773;50.010;19.972;2024-02-16T06:12:26;62.25;48.25;36.25
35654;PMS1003;21773;50.010;19.972;2024-02-16T06:15:29;66.00;51.00;39.00
35654;PMS1003;21773;50.010;19.972;2024-02-16T06:18:33;63.60;49.60;38.20
35654;PMS1003;21773;50.010;19.972;2024-02-16T06:21:36;63.80;49.80;38.20
35654;PMS1003;21773;50.010;19.972;2024-02-16T06:24:39;62.00;48.00;35.00
35654;PMS1003;21773;50.010;19.972;2024-02-16T06:27:44;64.20;49.40;38.20
35654;PMS1003;21773;50.010;19.972;2024-02-16T06:30:47;61.50;48.00;36.00
35654;PMS1003;21773;50.010;19.972;2024-02-16T06:33:50;65.00;49.40;35.40
35654;PMS1003;21773;50.010;19.972;2024-02-16T06:36:54;64.40;50.00;37.00
35654;PMS1003;21773;50.010;19.972;2024-02-16T06:39:57;63.60;48.60;37.20
35654;PMS1003;21773;50.010;19.972;2024-02-16T06:43:01;62.25;50.00;38.25
35654;PMS1003;21773;50.010;19.972;2024-02-16T06:46:06;60.80;49.00;35.20
35654;PMS1003;21773;50.010;19.972;2024-02-16T06:49:09;60.00;47.80;35.80
35654;PMS1003;21773;50.010;19.972;2024-02-16T06:52:12;61.80;47.80;36.20
35654;PMS1003;21773;50.010;19.972;2024-02-16T06:55:16;59.00;48.00;37.00
35654;PMS1003;21773;50.010;19.972;2024-02-16T06:58:20;60.00;48.00;35.00
35654;PMS1003;21773;50.010;19.972;2024-02-16T07:01:23;59.25;46.00;33.75
35654;PMS1003;21773;50.010;19.972;2024-02-16T07:04:27;58.50;46.50;35.00
35654;PMS1003;21773;50.010;19.972;2024-02-16T07:07:31;61.00;48.00;35.20
35654;PMS1003;21773;50.010;19.972;2024-02-16T07:10:37;62.00;47.00;34.00
35654;PMS1003;21773;50.010;19.972;2024-02-16T07:13:42;59.20;46.20;34.00
35654;PMS1003;21773;50.010;19.972;2024-02-16T07:16:46;61.60;48.00;35.00
35654;PMS1003;21773;50.010;19.972;2024-02-16T07:19:49;58.50;47.00;35.00
35654;PMS1003;21773;50.010;19.972;2024-02-16T07:22:53;57.80;46.40;34.60
35654;PMS1003;21773;50.010;19.972;2024-02-16T07:25:56;58.75;46.75;34.00
35654;PMS1003;21773;50.010;19.972;2024-02-16T07:29:01;59.50;47.25;34.25
35654;PMS1003;21773;50.010;19.972;2024-02-16T07:32:04;57.75;44.75;33.00
35654;PMS1003;21773;50.010;19.972;2024-02-16T07:35:08;57.20;45.20;33.20
35654;PMS1003;21773;50.010;19.972;2024-02-16T07:38:12;55.00;44.00;34.00
35654;PMS1003;21773;50.010;19.972;2024-02-16T07:41:15;58.50;46.00;34.00
35654;PMS1003;21773;50.010;19.972;2024-02-16T07:44:19;59.50;46.00;35.00
35654;PMS1003;21773;50.010;19.972;2024-02-16T07:47:23;56.40;44.60;33.00
35654;PMS1003;21773;50.010;19.972;2024-02-16T07:50:26;56.50;45.00;33.00
35654;PMS1003;21773;50.010;19.972;2024-02-16T07:53:30;56.40;45.00;34.00
35654;PMS1003;21773;50.010;19.972;2024-02-16T07:56:35;56.00;44.40;33.00
35654;PMS1003;21773;50.010;19.972;2024-02-16T07:59:39;54.40;43.40;31.40
35654;PMS1003;21773;50.010;19.972;2024-02-16T08:02:42;53.00;43.00;32.25
35654;PMS1003;21773;50.010;19.972;2024-02-16T08:05:46;53.00;43.60;33.00
35654;PMS1003;21773;50.010;19.972;2024-02-16T08:08:49;51.60;42.00;31.60
35654;PMS1003;21773;50.010;19.972;2024-02-16T08:11:52;49.00;40.00;29.60
35654;PMS1003;21773;50.010;19.972;2024-02-16T08:14:57;51.00;41.00;31.00
35654;PMS1003;21773;50.010;19.972;2024-02-16T08:18:01;52.00;42.00;31.25
35654;PMS1003;21773;50.010;19.972;2024-02-16T08:21:05;50.00;41.00;31.00
35654;PMS1003;21773;50.010;19.972;2024-02-16T08:24:08;55.75;44.00;32.50
35654;PMS1003;21773;50.010;19.972;2024-02-16T08:27:11;53.40;43.00;32.00
35654;PMS1003;21773;50.010;19.972;2024-02-16T08:30:19;53.00;43.40;33.00
35654;PMS1003;21773;50.010;19.972;2024-02-16T08:33:22;52.50;43.50;33.00
35654;PMS1003;21773;50.010;19.972;2024-02-16T08:36:25;52.00;42.00;31.00
35654;PMS1003;21773;50.010;19.972;2024-02-16T08:39:31;52.40;42.60;30.80
35654;PMS1003;21773;50.010;19.972;2024-02-16T08:42:37;53.00;42.00;32.00
35654;PMS1003;21773;50.010;19.972;2024-02-16T08:45:41;49.20;41.00;31.00
35654;PMS1003;21773;50.010;19.972;2024-02-16T08:48:44;48.00;39.00;29.00
35654;PMS1003;21773;50.010;19.972;2024-02-16T08:51:49;50.00;41.00;31.00
35654;PMS1003;21773;50.010;19.972;2024-02-16T08:54:52;50.00;41.20;31.00
35654;PMS1003;21773;50.010;19.972;2024-02-16T08:57:55;47.25;40.25;30.00
35654;PMS1003;21773;50.010;19.972;2024-02-16T09:01:00;48.00;40.00;30.00
35654;PMS1003;21773;50.010;19.972;2024-02-16T09:04:04;49.80;40.00;30.00
35654;PMS1003;21773;50.010;19.972;2024-02-16T09:07:07;51.25;41.00;31.00
35654;PMS1003;21773;50.010;19.972;2024-02-16T09:10:11;47.00;39.00;29.60
35654;PMS1003;21773;50.010;19.972;2024-02-16T09:13:14;43.00;36.00;28.00
35654;PMS1003;21773;50.010;19.972;2024-02-16T09:16:26;42.00;36.00;28.00
35654;PMS1003;21773;50.010;19.972;2024-02-16T09:19:29;45.00;36.00;28.00
35654;PMS1003;21773;50.010;19.972;2024-02-16T09:22:33;44.75;37.50;29.00
35654;PMS1003;21773;50.010;19.972;2024-02-16T09:25:39;47.60;38.80;29.80
35654;PMS1003;21773;50.010;19.972;2024-02-16T09:28:42;45.40;38.40;29.40
35654;PMS1003;21773;50.010;19.972;2024-02-16T09:31:48;49.60;41.00;31.00
35654;PMS1003;21773;50.010;19.972;2024-02-16T09:34:52;50.80;42.00;31.00
35654;PMS1003;21773;50.010;19.972;2024-02-16T09:37:56;50.00;41.00;30.50
35654;PMS1003;21773;50.010;19.972;2024-02-16T09:40:59;47.00;39.00;30.00
35654;PMS1003;21773;50.010;19.972;2024-02-16T09:44:03;44.80;37.80;28.80
35654;PMS1003;21773;50.010;19.972;2024-02-16T09:47:09;47.75;39.75;30.00
35654;PMS1003;21773;50.010;19.972;2024-02-16T09:50:15;45.00;36.60;28.00
35654;PMS1003;21773;50.010;19.972;2024-02-16T09:53:19;43.20;35.60;28.00
35654;PMS1003;21773;50.010;19.972;2024-02-16T09:56:23;46.00;38.00;29.00
35654;PMS1003;21773;50.010;19.972;2024-02-16T09:59:27;45.00;37.00;29.00
35654;PMS1003;21773;50.010;19.972;2024-02-16T10:02:40;46.80;39.00;30.00
35654;PMS1003;21773;50.010;19.972;2024-02-16T10:05:44;50.00;40.00;31.00
35654;PMS1003;21773;50.010;19.972;2024-02-16T10:08:48;46.00;37.00;28.00
35654;PMS1003;21773;50.010;19.972;2024-02-16T10:11:52;43.00;36.40;28.00
35654;PMS1003;21773;50.010;19.972;2024-02-16T10:14:56;41.80;35.00;27.20
35654;PMS1003;21773;50.010;19.972;2024-02-16T10:18:03;41.00;36.00;28.00
35654;PMS1003;21773;50.010;19.972;2024-02-16T10:21:08;44.00;36.00;28.00
35654;PMS1003;21773;50.010;19.972;2024-02-16T10:24:11;41.75;35.00;28.00
35654;PMS1003;21773;50.010;19.972;2024-02-16T10:27:17;39.00;34.00;27.00
35654;PMS1003;21773;50.010;19.972;2024-02-16T10:30:21;45.00;36.00;28.00
35654;PMS1003;21773;50.010;19.972;2024-02-16T10:33:28;41.75;36.00;28.00
35654;PMS1003;21773;50.010;19.972;2024-02-16T10:36:33;44.33;36.00;28.00
35654;PMS1003;21773;50.010;19.972;2024-02-16T10:39:37;44.60;36.60;28.00
35654;PMS1003;21773;50.010;19.972;2024-02-16T10:42:43;39.00;34.50;27.00
35654;PMS1003;21773;50.010;19.972;2024-02-16T10:45:48;43.40;36.00;28.00
35654;PMS1003;21773;50.010;19.972;2024-02-16T10:48:56;44.00;36.25;28.00
35654;PMS1003;21773;50.010;19.972;2024-02-16T10:51:59;44.40;36.00;27.40
35654;PMS1003;21773;50.010;19.972;2024-02-16T10:55:03;42.00;35.80;28.00
35654;PMS1003;21773;50.010;19.972;2024-02-16T10:58:10;39.80;33.80;26.20
35654;PMS1003;21773;50.010;19.972;2024-02-16T11:01:15;39.00;34.60;27.00
35654;PMS1003;21773;50.010;19.972;2024-02-16T11:04:19;40.50;35.00;26.75
35654;PMS1003;21773;50.010;19.972;2024-02-16T11:07:26;38.60;33.80;27.00
35654;PMS1003;21773;50.010;19.972;2024-02-16T11:10:30;38.00;33.00;26.00
35654;PMS1003;21773;50.010;19.972;2024-02-16T11:13:35;38.40;34.40;27.00
35654;PMS1003;21773;50.010;19.972;2024-02-16T11:16:43;37.80;33.00;27.00
35654;PMS1003;21773;50.010;19.972;2024-02-16T11:19:49;35.00;32.00;24.00
35654;PMS1003;21773;50.010;19.972;2024-02-16T11:22:53;35.00;31.80;24.00
35654;PMS1003;21773;50.010;19.972;2024-02-16T11:25:59;33.25;31.25;24.00
35654;PMS1003;21773;50.010;19.972;2024-02-16T11:29:03;34.20;31.00;24.80
35654;PMS1003;21773;50.010;19.972;2024-02-16T11:32:07;32.20;30.00;23.00
35654;PMS1003;21773;50.010;19.972;2024-02-16T11:35:12;34.00;31.00;24.00
35654;PMS1003;21773;50.010;19.972;2024-02-16T11:38:15;33.40;31.40;24.00
35654;PMS1003;21773;50.010;19.972;2024-02-16T11:41:20;32.40;29.20;23.00
35654;PMS1003;21773;50.010;19.972;2024-02-16T11:44:24;35.00;32.00;24.00
35654;PMS1003;21773;50.010;19.972;2024-02-16T11:47:28;33.20;30.00;24.00
35654;PMS1003;21773;50.010;19.972;2024-02-16T11:50:33;29.00;28.00;22.00
35654;PMS1003;21773;50.010;19.972;2024-02-16T11:53:36;31.25;28.00;22.25
35654;PMS1003;21773;50.010;19.972;2024-02-16T11:56:39;29.50;28.00;22.00
35654;PMS1003;21773;50.010;19.972;2024-02-16T11:59:44;26.00;25.00;21.00
35654;PMS1003;21773;50.010;19.972;2024-02-16T12:02:47;25.60;24.60;20.00
35654;PMS1003;21773;50.010;19.972;2024-02-16T12:06:02;24.60;24.00;20.00
35654;PMS1003;21773;50.010;19.972;2024-02-16T12:09:05;25.00;23.40;20.00
35654;PMS1003;21773;50.010;19.972;2024-02-16T12:12:10;20.50;20.00;18.50
35654;PMS1003;21773;50.010;19.972;2024-02-16T12:15:15;22.00;22.00;19.00
35654;PMS1003;21773;50.010;19.972;2024-02-16T12:18:20;17.60;17.00;15.00
35654;PMS1003;21773;50.010;19.972;2024-02-16T12:21:25;21.00;20.00;16.40
35654;PMS1003;21773;50.010;19.972;2024-02-16T12:24:28;21.00;19.00;16.20
35654;PMS1003;21773;50.010;19.972;2024-02-16T12:27:31;20.50;18.50;17.00
35654;PMS1003;21773;50.010;19.972;2024-02-16T12:30:35;19.50;17.75;15.75
35654;PMS1003;21773;50.010;19.972;2024-02-16T12:33:39;18.00;17.00;15.00
35654;PMS1003;21773;50.010;19.972;2024-02-16T12:36:43;17.00;16.00;13.75
35654;PMS1003;21773;50.010;19.972;2024-02-16T12:39:51;16.80;14.40;12.80
35654;PMS1003;21773;50.010;19.972;2024-02-16T12:42:54;14.00;12.00;10.80
35654;PMS1003;21773;50.010;19.972;2024-02-16T12:45:57;16.60;14.00;12.00
35654;PMS1003;21773;50.010;19.972;2024-02-16T12:49:03;12.00;12.00;11.00
35654;PMS1003;21773;50.010;19.972;2024-02-16T12:52:08;15.00;13.00;10.80
35654;PMS1003;21773;50.010;19.972;2024-02-16T12:55:11;14.00;12.50;10.00
35654;PMS1003;21773;50.010;19.972;2024-02-16T12:58:15;12.00;12.00;11.00
35654;PMS1003;21773;50.010;19.972;2024-02-16T13:01:19;15.00;13.00;11.00
35654;PMS1003;21773;50.010;19.972;2024-02-16T13:04:27;16.00;14.00;12.00
35654;PMS1003;21773;50.010;19.972;2024-02-16T13:07:34;13.60;12.60;10.00
35654;PMS1003;21773;50.010;19.972;2024-02-16T13:10:39;13.60;13.00;12.00
35654;PMS1003;21773;50.010;19.972;2024-02-16T13:13:44;14.00;12.50;11.50
35654;PMS1003;21773;50.010;19.972;2024-02-16T13:16:47;14.00;13.00;11.00
35654;PMS1003;21773;50.010;19.972;2024-02-16T13:19:50;13.00;12.00;11.00
35654;PMS1003;21773;50.010;19.972;2024-02-16T13:22:55;14.00;13.25;11.00
35654;PMS1003;21773;50.010;19.972;2024-02-16T13:25:58;14.40;13.40;11.00
35654;PMS1003;21773;50.010;19.972;2024-02-16T13:29:01;14.40;12.60;11.00
35654;PMS1003;21773;50.010;19.972;2024-02-16T13:32:05;14.20;12.00;10.40
35654;PMS1003;21773;50.010;19.972;2024-02-16T13:35:08;14.80;13.40;12.00
35654;PMS1003;21773;50.010;19.972;2024-02-16T13:38:13;13.60;12.60;10.60
35654;PMS1003;21773;50.010;19.972;2024-02-16T13:41:16;13.00;12.40;11.00
35654;PMS1003;21773;50.010;19.972;2024-02-16T13:44:21;11.60;11.60;9.00
35654;PMS1003;21773;50.010;19.972;2024-02-16T13:47:24;12.00;12.00;11.00
35654;PMS1003;21773;50.010;19.972;2024-02-16T13:50:27;12.40;12.40;10.40
35654;PMS1003;21773;50.010;19.972;2024-02-16T13:53:32;17.00;15.40;13.00
35654;PMS1003;21773;50.010;19.972;2024-02-16T13:56:35;12.50;12.00;10.00
35654;PMS1003;21773;50.010;19.972;2024-02-16T13:59:40;12.00;12.00;10.60
35654;PMS1003;21773;50.010;19.972;2024-02-16T14:02:43;12.00;11.60;9.60
35654;PMS1003;21773;50.010;19.972;2024-02-16T14:05:47;12.80;11.00;9.40
35654;PMS1003;21773;50.010;19.972;2024-02-16T14:08:51;11.25;11.00;10.00
35654;PMS1003;21773;50.010;19.972;2024-02-16T14:11:55;12.00;11.00;9.60
35654;PMS1003;21773;50.010;19.972;2024-02-16T14:15:01;12.00;10.00;9.00
35654;PMS1003;21773;50.010;19.972;2024-02-16T14:18:04;12.00;12.00;10.50
35654;PMS1003;21773;50.010;19.972;2024-02-16T14:21:18;11.80;10.80;9.80
35654;PMS1003;21773;50.010;19.972;2024-02-16T14:24:26;11.00;10.00;9.00
35654;PMS1003;21773;50.010;19.972;2024-02-16T14:27:30;11.60;10.60;9.00
35654;PMS1003;21773;50.010;19.972;2024-02-16T14:30:33;13.00;12.00;10.00
35654;PMS1003;21773;50.010;19.972;2024-02-16T14:33:36;10.60;10.00;9.00
35654;PMS1003;21773;50.010;19.972;2024-02-16T14:36:39;12.20;12.00;10.00
35654;PMS1003;21773;50.010;19.972;2024-02-16T14:39:44;12.00;11.40;10.40
35654;PMS1003;21773;50.010;19.972;2024-02-16T14:42:48;13.00;12.00;10.00
35654;PMS1003;21773;50.010;19.972;2024-02-16T14:45:51;11.60;11.40;9.00
35654;PMS1003;21773;50.010;19.972;2024-02-16T14:48:54;12.00;11.00;9.00
35654;PMS1003;21773;50.010;19.972;2024-02-16T14:51:58;11.20;10.00;9.20
35654;PMS1003;21773;50.010;19.972;2024-02-16T14:55:02;10.80;10.00;8.80
35654;PMS1003;21773;50.010;19.972;2024-02-16T14:58:06;10.40;10.00;8.00
35654;PMS1003;21773;50.010;19.972;2024-02-16T15:01:10;10.40;9.00;8.00
35654;PMS1003;21773;50.010;19.972;2024-02-16T15:04:14;9.20;9.20;8.00
35654;PMS1003;21773;50.010;19.972;2024-02-16T15:07:18;10.67;10.00;8.67
35654;PMS1003;21773;50.010;19.972;2024-02-16T15:10:22;8.60;8.60;7.60
35654;PMS1003;21773;50.010;19.972;2024-02-16T15:13:26;10.00;10.00;9.00
35654;PMS1003;21773;50.010;19.972;2024-02-16T15:16:31;10.60;10.60;9.00
35654;PMS1003;21773;50.010;19.972;2024-02-16T15:19:34;10.75;9.75;8.00
35654;PMS1003;21773;50.010;19.972;2024-02-16T15:22:38;12.75;12.00;10.25
35654;PMS1003;21773;50.010;19.972;2024-02-16T15:25:54;11.20;9.00;7.80
35654;PMS1003;21773;50.010;19.972;2024-02-16T15:28:57;14.00;12.25;11.00
35654;PMS1003;21773;50.010;19.972;2024-02-16T15:32:01;12.00;11.00;10.00
35654;PMS1003;21773;50.010;19.972;2024-02-16T15:35:04;14.00;12.00;10.00
35654;PMS1003;21773;50.010;19.972;2024-02-16T15:38:08;15.60;12.60;11.00
35654;PMS1003;21773;50.010;19.972;2024-02-16T15:41:12;13.00;12.60;11.00
35654;PMS1003;21773;50.010;19.972;2024-02-16T15:44:16;12.60;12.00;10.00
35654;PMS1003;21773;50.010;19.972;2024-02-16T15:47:19;15.60;14.00;11.00
35654;PMS1003;21773;50.010;19.972;2024-02-16T15:50:22;15.80;13.80;12.80
35654;PMS1003;21773;50.010;19.972;2024-02-16T15:53:27;14.40;13.40;12.40
35654;PMS1003;21773;50.010;19.972;2024-02-16T16:13:01;15.80;13.80;11.20
35654;PMS1003;21773;50.010;19.972;2024-02-16T16:16:08;15.50;13.50;11.50
35654;PMS1003;21773;50.010;19.972;2024-02-16T16:19:12;15.40;14.00;12.00
35654;PMS1003;21773;50.010;19.972;2024-02-16T16:22:15;17.00;15.00;12.00
35654;PMS1003;21773;50.010;19.972;2024-02-16T16:25:18;21.60;19.60;16.00
35654;PMS1003;21773;50.010;19.972;2024-02-16T16:28:23;15.60;15.00;13.60
35654;PMS1003;21773;50.010;19.972;2024-02-16T16:31:26;15.60;14.60;12.00
35654;PMS1003;21773;50.010;19.972;2024-02-16T16:34:29;17.50;16.50;14.50
35654;PMS1003;21773;50.010;19.972;2024-02-16T16:37:33;18.00;16.00;13.00
35654;PMS1003;21773;50.010;19.972;2024-02-16T16:40:36;20.20;19.00;16.20
35654;PMS1003;21773;50.010;19.972;2024-02-16T16:43:41;19.00;16.60;15.00
35654;PMS1003;21773;50.010;19.972;2024-02-16T16:46:44;15.00;15.00;13.40
35654;PMS1003;21773;50.010;19.972;2024-02-16T16:49:47;23.40;21.00;17.00
35654;PMS1003;21773;50.010;19.972;2024-02-16T16:52:51;23.40;22.00;18.80
35654;PMS1003;21773;50.010;19.972;2024-02-16T16:55:54;22.00;19.40;17.00
35654;PMS1003;21773;50.010;19.972;2024-02-16T16:58:59;22.50;21.00;17.00
35654;PMS1003;21773;50.010;19.972;2024-02-16T17:02:03;21.00;19.00;16.50
35654;PMS1003;21773;50.010;19.972;2024-02-16T17:05:07;21.60;20.00;17.00
35654;PMS1003;21773;50.010;19.972;2024-02-16T17:08:11;20.00;20.00;17.00
35654;PMS1003;21773;50.010;19.972;2024-02-16T17:11:14;22.00;20.33;17.00
35654;PMS1003;21773;50.010;19.972;2024-02-16T17:14:19;24.00;19.00;16.40
35654;PMS1003;21773;50.010;19.972;2024-02-16T17:17:22;23.60;21.60;18.60
35654;PMS1003;21773;50.010;19.972;2024-02-16T17:20:25;23.75;20.75;18.75
35654;PMS1003;21773;50.010;19.972;2024-02-16T17:23:29;24.20;22.20;18.80
35654;PMS1003;21773;50.010;19.972;2024-02-16T17:26:32;25.25;22.00;20.00
35654;PMS1003;21773;50.010;19.972;2024-02-16T17:29:47;25.00;22.50;20.00
35654;PMS1003;21773;50.010;19.972;2024-02-16T17:32:50;24.40;23.00;20.00
35654;PMS1003;21773;50.010;19.972;2024-02-16T17:35:53;22.00;19.50;17.00
35654;PMS1003;21773;50.010;19.972;2024-02-16T17:38:57;26.25;23.00;19.00
35654;PMS1003;21773;50.010;19.972;2024-02-16T17:42:00;26.80;24.20;18.20
35654;PMS1003;21773;50.010;19.972;2024-02-16T17:45:05;21.60;21.00;18.00
35654;PMS1003;21773;50.010;19.972;2024-02-16T17:48:09;24.00;23.00;19.60
35654;PMS1003;21773;50.010;19.972;2024-02-16T17:51:13;25.00;23.00;17.80
35654;PMS1003;21773;50.010;19.972;2024-02-16T17:54:16;23.60;21.60;19.00
35654;PMS1003;21773;50.010;19.972;2024-02-16T17:57:20;22.60;22.00;19.00
35654;PMS1003;21773;50.010;19.972;2024-02-16T18:00:25;24.20;22.20;19.00
35654;PMS1003;21773;50.010;19.972;2024-02-16T18:03:28;29.33;26.00;21.00
35654;PMS1003;21773;50.010;19.972;2024-02-16T18:06:31;28.00;25.25;21.00
35654;PMS1003;21773;50.010;19.972;2024-02-16T18:09:36;24.20;21.00;18.00
35654;PMS1003;21773;50.010;19.972;2024-02-16T18:12:39;23.50;21.00;19.00
35654;PMS1003;21773;50.010;19.972;2024-02-16T18:15:44;26.25;25.00;20.00
35654;PMS1003;21773;50.010;19.972;2024-02-16T18:18:47;26.75;22.00;19.00